createdAt,value
2022-11-16T00:04:52.196Z,219.40
2022-11-16T00:09:52.305Z,199.20
2022-11-16T00:14:51.650Z,199.80
2022-11-16T00:19:52.015Z,188.90
2022-11-16T00:24:49.125Z,179.60
2022-11-16T00:29:49.515Z,171.20
2022-11-16T00:34:46.652Z,167.00
2022-11-16T00:39:46.804Z,157.10
2022-11-16T00:44:44.890Z,152.10
2022-11-16T00:49:44.203Z,148.30
2022-11-16T00:54:43.481Z,145.80
2022-11-16T00:59:42.765Z,139.40
2022-11-16T01:04:42.152Z,134.80
2022-11-16T01:09:41.324Z,132.30
2022-11-16T01:14:40.426Z,127.30
2022-11-16T01:19:39.753Z,121.00
2022-11-16T01:24:40.050Z,118.20
2022-11-16T01:29:38.384Z,109.50
2022-11-16T01:34:38.686Z,111.20
2022-11-16T01:39:36.997Z,104.50
2022-11-16T01:44:37.319Z,101.90
2022-11-16T01:49:35.647Z,94.40
2022-11-16T01:54:34.958Z,92.50
2022-11-16T01:59:34.284Z,90.70
2022-11-16T02:04:33.605Z,90.20
2022-11-16T02:09:33.956Z,83.00
2022-11-16T02:14:33.269Z,77.20
2022-11-16T02:19:32.621Z,76.60
2022-11-16T02:24:30.904Z,72.80
2022-11-16T02:29:30.215Z,72.30
2022-11-16T02:34:28.538Z,69.60
2022-11-16T02:39:28.842Z,67.20
2022-11-16T02:44:28.121Z,64.90
2022-11-16T02:49:27.420Z,62.00
2022-11-16T02:54:26.737Z,62.50
2022-11-16T02:59:25.841Z,58.50
2022-11-16T03:04:26.124Z,57.10
2022-11-16T03:09:25.556Z,55.10
2022-11-16T03:14:24.648Z,54.60
2022-11-16T03:19:22.983Z,50.80
2022-11-16T03:24:22.273Z,49.40
2022-11-16T03:29:21.538Z,44.90
2022-11-16T03:34:20.828Z,47.60
2022-11-16T03:39:20.115Z,44.30
2022-11-16T03:44:19.420Z,42.60
2022-11-16T03:49:20.740Z,41.70
2022-11-16T03:54:18.042Z,41.40
2022-11-16T03:59:18.421Z,37.20
2022-11-16T04:04:16.513Z,38.90
2022-11-16T04:09:15.786Z,36.10
2022-11-16T04:14:16.072Z,35.30
2022-11-16T04:19:14.556Z,34.60
2022-11-16T04:24:13.748Z,33.50
2022-11-16T04:29:12.837Z,31.70
2022-11-16T04:34:12.134Z,29.50
2022-11-16T04:39:10.447Z,29.30
2022-11-16T04:44:11.765Z,26.70
2022-11-16T04:49:10.061Z,27.80
2022-11-16T04:54:10.371Z,24.60
2022-11-16T04:59:08.695Z,25.90
2022-11-16T05:04:09.960Z,25.40
2022-11-16T05:09:08.204Z,25.20
2022-11-16T05:14:06.493Z,23.70
2022-11-16T05:19:05.805Z,21.70
2022-11-16T05:24:07.095Z,21.80
2022-11-16T05:29:04.520Z,20.40
2022-11-16T05:34:04.607Z,20.20
2022-11-16T05:39:02.892Z,20.20
2022-11-16T05:44:02.171Z,18.40
2022-11-16T05:49:03.483Z,17.20
2022-11-16T05:54:00.837Z,17.90
2022-11-16T05:59:00.147Z,16.60
2022-11-16T06:03:59.446Z,16.50
2022-11-16T06:08:58.731Z,16.00
2022-11-16T06:13:58.014Z,15.90
2022-11-16T06:18:57.299Z,14.80
2022-11-16T06:23:56.609Z,15.70
2022-11-16T06:28:55.891Z,14.30
2022-11-16T06:33:56.195Z,13.10
2022-11-16T06:38:56.481Z,13.30
2022-11-16T06:43:54.822Z,12.90
2022-11-16T06:48:53.122Z,14.10
2022-11-16T06:53:53.471Z,12.30
2022-11-16T06:58:53.859Z,13.90
2022-11-16T07:03:50.946Z,13.80
2022-11-16T07:08:50.253Z,89.10
2022-11-16T07:13:49.531Z,197.70
2022-11-16T07:18:48.780Z,230.30
2022-11-16T07:23:50.094Z,339.00
2022-11-16T07:28:48.549Z,290.80
2022-11-16T07:33:47.585Z,424.10
2022-11-16T07:38:45.893Z,418.60
2022-11-16T07:43:49.880Z,378.20
2022-11-16T07:48:44.361Z,367.10
2022-11-16T07:53:43.629Z,336.80
2022-11-16T07:58:43.916Z,326.70
2022-11-16T08:03:42.190Z,301.20
2022-11-16T08:08:41.466Z,320.80
2022-11-16T08:13:39.754Z,468.80
2022-11-16T08:18:41.045Z,428.70
2022-11-16T08:23:39.313Z,412.80
2022-11-16T08:28:39.627Z,533.00
2022-11-16T08:33:39.726Z,506.90
2022-11-16T08:38:37.002Z,547.10
2022-11-16T08:43:35.344Z,585.30
2022-11-16T08:48:36.869Z,571.90
2022-11-16T08:53:36.668Z,540.60
2022-11-16T08:58:35.266Z,525.50
2022-11-16T09:03:33.207Z,505.30
2022-11-16T09:08:33.779Z,481.90
2022-11-16T09:13:32.702Z,470.70
2022-11-16T09:18:32.435Z,453.90
2022-11-16T09:23:32.289Z,435.30
2022-11-16T09:28:30.670Z,423.40
2022-11-16T09:33:28.778Z,402.10
2022-11-16T09:38:40.641Z,366.90
2022-11-16T09:43:27.244Z,427.40
2022-11-16T09:48:26.479Z,497.50
2022-11-16T09:53:25.652Z,444.60
2022-11-16T09:58:24.836Z,411.30
2022-11-16T10:03:24.005Z,487.10
2022-11-16T10:08:23.243Z,489.80
2022-11-16T10:13:24.405Z,462.30
2022-11-16T10:18:21.559Z,431.10
2022-11-16T10:23:20.729Z,416.00
2022-11-16T10:28:21.042Z,396.80
2022-11-16T10:33:20.322Z,316.10
2022-11-16T10:38:18.659Z,292.50
2022-11-16T10:43:17.855Z,290.40
2022-11-16T10:48:18.101Z,281.30
2022-11-16T10:53:16.313Z,269.00
2022-11-16T10:58:15.399Z,260.80
2022-11-16T11:03:15.781Z,245.30
2022-11-16T11:08:13.944Z,239.90
2022-11-16T11:13:13.032Z,225.70
2022-11-16T11:18:11.407Z,222.30
2022-11-16T11:23:11.512Z,220.50
2022-11-16T11:28:10.791Z,216.90
2022-11-16T11:33:11.181Z,208.40
2022-11-16T11:38:09.320Z,201.90
2022-11-16T11:43:09.446Z,182.70
2022-11-16T11:48:07.585Z,176.60
2022-11-16T11:53:06.737Z,171.80
2022-11-16T11:58:06.062Z,166.20
2022-11-16T12:03:05.412Z,155.90
2022-11-16T12:08:06.583Z,148.80
2022-11-16T12:13:03.659Z,141.40
2022-11-16T12:18:03.995Z,139.50
2022-11-16T12:23:04.365Z,133.40
2022-11-16T12:28:02.420Z,136.20
2022-11-16T12:33:00.731Z,130.90
2022-11-16T12:38:00.017Z,129.60
2022-11-16T12:43:03.495Z,125.30
2022-11-16T12:47:59.580Z,119.20
2022-11-16T12:52:58.020Z,120.90
2022-11-16T12:57:57.163Z,117.00
2022-11-16T13:02:57.451Z,110.60
2022-11-16T13:07:55.796Z,110.60
2022-11-16T13:13:09.292Z,108.60
2022-11-16T13:17:54.061Z,105.90
2022-11-16T13:22:54.412Z,98.70
2022-11-16T13:27:52.543Z,97.80
2022-11-16T13:32:50.842Z,97.20
2022-11-16T13:37:51.235Z,96.00
2022-11-16T13:42:51.343Z,91.70
2022-11-16T13:47:49.673Z,87.40
2022-11-16T13:53:46.341Z,80.00
2022-11-16T13:57:48.053Z,78.20
2022-11-16T14:02:47.225Z,80.60
2022-11-16T14:07:47.496Z,80.90
2022-11-16T14:12:45.644Z,78.60
2022-11-16T14:17:44.990Z,75.10
2022-11-16T14:22:44.194Z,72.90
2022-11-16T14:27:44.336Z,70.10
2022-11-16T14:32:42.854Z,69.50
2022-11-16T14:37:42.033Z,65.80
2022-11-16T14:43:01.458Z,64.20
2022-11-16T14:47:40.455Z,61.00
2022-11-16T14:52:39.752Z,62.00
2022-11-16T14:57:38.871Z,59.70
2022-11-16T15:02:38.073Z,58.20
2022-11-16T15:07:37.308Z,57.00
2022-11-16T15:12:36.461Z,55.70
2022-11-16T15:17:36.661Z,53.70
2022-11-16T15:22:35.022Z,51.70
2022-11-16T15:27:34.141Z,50.20
2022-11-16T15:32:32.465Z,48.40
2022-11-16T15:37:31.845Z,47.10
2022-11-16T15:42:32.007Z,46.20
2022-11-16T15:47:31.333Z,44.50
2022-11-16T15:52:30.447Z,43.30
2022-11-16T15:57:29.761Z,40.40
2022-11-16T16:02:29.108Z,41.00
2022-11-16T16:07:28.511Z,38.50
2022-11-16T16:12:27.747Z,36.60
2022-11-16T16:17:26.949Z,36.00
2022-11-16T16:22:26.121Z,34.50
2022-11-16T16:27:26.257Z,33.20
2022-11-16T16:32:25.554Z,31.70
2022-11-16T16:37:24.267Z,30.80
2022-11-16T16:42:23.554Z,31.70
2022-11-16T16:47:22.649Z,29.40
2022-11-16T16:52:21.074Z,30.50
2022-11-16T16:57:21.071Z,27.70
2022-11-16T17:02:20.633Z,27.20
2022-11-16T17:07:18.708Z,25.40
2022-11-16T17:12:18.882Z,24.20
2022-11-16T17:17:19.131Z,24.20
2022-11-16T17:22:19.386Z,23.00
2022-11-16T17:27:16.851Z,21.70
2022-11-16T17:32:15.834Z,22.10
2022-11-16T17:37:15.300Z,19.80
2022-11-16T17:42:14.652Z,20.70
2022-11-16T17:47:14.757Z,18.40
2022-11-16T17:52:14.074Z,18.60
2022-11-16T17:57:13.201Z,18.60
2022-11-16T18:02:12.385Z,17.20
2022-11-16T18:07:10.833Z,13.40
2022-11-16T18:12:13.774Z,14.10
2022-11-16T18:17:09.186Z,15.20
2022-11-16T18:22:08.510Z,13.20
2022-11-16T18:27:12.652Z,13.30
2022-11-16T18:32:06.804Z,13.90
2022-11-16T18:37:06.432Z,12.60
2022-11-16T18:42:06.744Z,12.50
2022-11-16T18:47:06.001Z,12.70
2022-11-16T18:52:06.272Z,12.10
2022-11-16T18:57:03.442Z,12.10
2022-11-16T19:02:02.887Z,11.00
2022-11-16T19:07:02.190Z,11.20
2022-11-16T19:12:01.373Z,11.10
2022-11-16T19:17:00.682Z,10.10
2022-11-16T19:21:59.992Z,10.20
2022-11-16T19:27:00.339Z,9.60
2022-11-16T19:31:59.371Z,9.50
2022-11-16T19:36:58.301Z,8.90
2022-11-16T19:41:56.911Z,8.30
2022-11-16T19:46:56.253Z,8.10
2022-11-16T19:51:55.387Z,8.10
2022-11-16T19:56:55.360Z,7.70
2022-11-16T20:02:06.038Z,8.20
2022-11-16T20:06:54.240Z,7.60
2022-11-16T20:11:55.327Z,7.00
2022-11-16T20:16:52.201Z,97.10
2022-11-16T20:21:51.455Z,278.70
2022-11-16T20:26:49.951Z,190.90
2022-11-16T20:31:49.085Z,175.50
2022-11-16T20:36:48.408Z,158.60
2022-11-16T20:41:48.734Z,218.00
2022-11-16T20:46:47.131Z,401.00
2022-11-16T20:51:48.153Z,316.20
2022-11-16T20:56:45.513Z,273.90
2022-11-16T21:01:44.433Z,362.80
2022-11-16T21:06:44.638Z,435.70
2022-11-16T21:11:42.804Z,384.70
2022-11-16T21:16:42.085Z,341.20
2022-11-16T21:21:41.381Z,321.80
2022-11-16T21:26:40.556Z,457.10
2022-11-16T21:31:40.722Z,455.00
2022-11-16T21:36:38.910Z,391.90
2022-11-16T21:41:38.076Z,348.50
2022-11-16T21:46:37.249Z,422.90
2022-11-16T21:51:36.424Z,469.80
2022-11-16T21:56:35.597Z,534.20
2022-11-16T22:01:34.797Z,507.80
2022-11-16T22:06:34.003Z,459.90
2022-11-16T22:11:33.185Z,425.10
2022-11-16T22:16:33.379Z,371.30
2022-11-16T22:21:32.547Z,365.70
2022-11-16T22:26:30.716Z,449.60
2022-11-16T22:31:29.915Z,439.70
2022-11-16T22:36:30.115Z,400.10
2022-11-16T22:41:28.303Z,384.90
2022-11-16T22:46:28.489Z,476.50
2022-11-16T22:51:26.666Z,435.30
2022-11-16T22:56:27.868Z,397.20
2022-11-16T23:01:25.010Z,353.10
2022-11-16T23:06:24.184Z,326.60
2022-11-16T23:11:23.346Z,468.60
2022-11-16T23:16:22.523Z,428.80
2022-11-16T23:21:21.689Z,382.60
2022-11-16T23:26:20.870Z,477.30
2022-11-16T23:31:20.029Z,470.60
2022-11-16T23:36:19.197Z,432.30
2022-11-16T23:41:19.359Z,512.80
2022-11-16T23:46:17.518Z,475.80
2022-11-16T23:51:17.673Z,424.50
2022-11-16T23:56:15.841Z,420.40
